AirNav   Everest Fuels
 
 834 users online  

7XS0 Polly Ranch Airport
Friendswood, Texas, USA

GOING TO FRIENDSWOOD?


FAA INFORMATION EFFECTIVE 18 JUNE 2020

Location

FAA Identifier: 7XS0
Lat/Long: 29-30-16.8390N 095-10-31.7580W
29-30.280650N 095-10.529300W
29.5046775,-95.1754883
(estimated)
Elevation: 24 ft. / 7.3 m (surveyed)
Variation: 06E (1985)
From city: 3 miles SE of FRIENDSWOOD, TX
Time zone: UTC -5 (UTC -6 during Standard Time)
Zip code: 77546

Airport Operations

Airport use: Private use. Permission required prior to landing
Activation date: 03/1977
Control tower: no
ARTCC: HOUSTON CENTER
FSS: MONTGOMERY COUNTY FLIGHT SERVICE STATION
Attendance: UNATNDD
Wind indicator: yes
Segmented circle: no
Lights: SS-SR
Landing fee: yes

Airport Communications

WX ASOS at LVJ (4 nm W): 118.525 (281-992-1853)
WX AWOS-3 at EFD (6 nm N): 135.575 (713-847-4430)
WX ASOS at HOU (10 nm NW): PHONE 713-847-1462
WX AWOS-3PT at T41 (11 nm NE): 120.275 (281-471-2206)
WX AWOS-3 at AXH (16 nm W): 123.625 (281-431-6572)

Nearby radio navigation aids

VOR radial/distance  VOR name  Freq  Var
VUHr305/21.4SCHOLES VOR/DME113.0006E
MHFr257/22.5TRINITY VOR/DME113.6007E
IAHr157/28.5HUMBLE VORTAC116.6005E

Airport Services

Runway Information

Runway 11/29

Dimensions: 2700 x 22 ft. / 823 x 7 m
Surface: asphalt
Runway edge lights: low intensity
RUNWAY 11  RUNWAY 29
Traffic pattern: leftleft
Displaced threshold: 300 ft.300 ft.
Obstructions: none50 ft. trees, 500 ft. from runway

Airport Ownership and Management from official FAA records

Ownership: Privately-owned
Owner: POLLY RANCH HOME OWNERS ASSOC
PO BOX 161
FRIENDSWOOD, TX 77546
Phone 713-482-6430
Manager: GAYLON KOENNING
2306 BUTLER DR
FRIENDSWOOD, TX 77546
Phone (713) 503-2055

Airport Operational Statistics

Aircraft based on the field: 36
Single engine airplanes: 30
Multi engine airplanes: 6
    

Additional Remarks

FOR CD CTC HOUSTON APCH AT 281-443-5844.

Instrument Procedures

There are no published instrument procedures at 7XS0.

Some nearby airports with instrument procedures:

KLVJ - Pearland Regional Airport (4 nm W)
KEFD - Ellington Airport (6 nm N)
KHOU - William P Hobby Airport (10 nm NW)
T41 - La Porte Municipal Airport (11 nm NE)
KAXH - Houston Southwest Airport (16 nm W)
 
Loc | Ops | Rwys | IFR | FBO | Links
Com | Nav | Svcs | Stats | Notes
Area around 7XS0 (Polly Ranch Airport)
 
Road maps at: MapQuest Bing Google
 
Aerial photo
WARNING: Photo may not be current or correct
Aerial photo of 7XS0 (Polly Ranch Airport)
Do you have a better or more recent aerial photo of Polly Ranch Airport that you would like to share? If so, please send us your photo.

 
Sectional chart

 
Airport distance calculator
Flying to Polly Ranch Airport? Find the distance to fly.

From to 7XS0

Sunrise and sunset
Times for 08-Jul-2020
 Local
(UTC-5)
 Zulu
(UTC)
Morning civil twilight06:0211:02
Sunrise06:2911:29
Sunset20:2301:23
Evening civil twilight20:5001:50

Current date and time
Zulu (UTC)  09-Jul-2020 02:27:56
Local (UTC-5)  08-Jul-2020 21:27:56
 
METAR
KLVJ 
4nm W 
090153Z AUTO 18007KT 9SM CLR 30/23 A2992 RMK AO2 SLP130 T03000233
KEFD 
6nm N 
090150Z 17010KT 10SM FEW040 SCT250 28/24 A2989
KHOU 
10nm NW 
090153Z 18010KT 10SM FEW030 SCT250 30/24 A2990 RMK AO2 SLP127 T03000239
KT41 
11nm NE 
090215Z AUTO 19010KT 10SM CLR 29/25 A2991 RMK AO2 T02880245
KAXH 
16nm W 
090215Z AUTO 18003KT 10SM CLR 27/25 A2991 RMK AO2 T02720247
TAF
KEFD 
6nm N 
082000Z 0820/1002 19010G15KT 9999 SCT030 BKN150 QNH2984INS BECMG 0904/0905 18006KT 9000 BR BKN010 QNH2988INS BECMG 0914/0915 18012G18KT 9999 NSW BKN018 QNH2990INS BECMG 0916/0917 18012G18KT 9999 FEW050 QNH2984INS TX35/0821Z TN26/0911Z
KHOU 
10nm NW 
090000Z 0900/0924 18011KT P6SM FEW040 SCT250 FM090600 19006KT P6SM SCT015 BKN025 FM091500 20010KT P6SM SCT035 SCT045 FM092300 18011KT P6SM FEW045
NOTAMs
Click for the latest NOTAMs
NOTAMs are issued by the DoD/FAA and will open in a separate window not controlled by AirNav.

 

 
 

Would you like to see your business listed on this page?

 If your business provides an interesting product or service to pilots, flight crews, aircraft, or users of the Polly Ranch Airport, you should consider listing it here.  To start the listing process, click on the button below
 
Add a business
 

Other Pages about Polly Ranch Airport

www.pollyranch.com
 
Update a link
 
Copyright © AirNav, LLC. All rights reserved. Privacy Policy  Contact